Terminal Aerodrome Forecast
Issued by NWS

Home | Current Version | Previous Version | Text Only | Print | Product List | Glossary On
Versions: 1 2 3 4 5 6 7 8 9 10 11 12 13
000
FTUS43 KMQT 252300
TAFCMX
TAF
KCMX 252321Z 2600/2624 30008KT P6SM VCSH BKN035
     FM260500 27005KT 5SM BR OVC015
     FM260900 27005KT 2SM BR OVC005
     FM261400 30008KT P6SM BKN012
     FM261700 31009KT P6SM SCT025=

USA.gov is the U.S. government's official web portal to all federal, state and local government web resources and services.